createdAt,value
2023-01-17T00:03:00.987Z,97836.20
2023-01-17T00:08:24.556Z,97827.18
2023-01-17T00:13:30.006Z,97829.58
2023-01-17T00:18:35.453Z,97823.94
2023-01-17T00:23:58.835Z,97820.44
2023-01-17T00:29:03.826Z,97810.73
2023-01-17T00:34:08.593Z,97804.22
2023-01-17T00:39:13.546Z,97799.54
2023-01-17T00:44:36.763Z,97796.77
2023-01-17T00:50:00.373Z,97794.86
2023-01-17T00:55:24.717Z,97782.23
2023-01-17T01:00:48.000Z,97792.23
2023-01-17T01:06:11.427Z,97783.08
2023-01-17T01:11:37.733Z,97780.57
2023-01-17T01:17:01.330Z,97772.50
2023-01-17T01:22:24.565Z,97762.31
2023-01-17T01:27:48.023Z,97762.31
2023-01-17T01:33:11.717Z,97759.28
2023-01-17T01:38:18.575Z,97758.33
2023-01-17T01:43:43.695Z,97747.64
2023-01-17T01:48:52.116Z,97738.41
2023-01-17T01:54:00.542Z,97719.42
2023-01-17T01:59:09.087Z,97716.31
2023-01-17T02:04:15.290Z,97707.78
2023-01-17T02:09:21.827Z,97698.91
2023-01-17T02:14:27.337Z,97691.94
2023-01-17T02:19:52.185Z,97698.66
2023-01-17T02:25:32.963Z,97680.53
2023-01-17T02:30:50.349Z,97668.50
2023-01-17T02:36:16.714Z,97666.21
2023-01-17T02:41:28.005Z,97658.53
2023-01-17T02:46:33.468Z,97661.41
2023-01-17T02:51:47.502Z,97650.48
2023-01-17T02:57:29.091Z,97649.72
2023-01-17T03:02:43.407Z,97644.59
2023-01-17T03:07:50.557Z,97648.89
2023-01-17T03:13:01.247Z,97643.72
2023-01-17T03:18:09.658Z,97639.03
2023-01-17T03:23:15.175Z,97633.50
2023-01-17T03:28:20.700Z,97630.84
2023-01-17T03:33:26.754Z,97630.09
2023-01-17T03:38:32.218Z,97625.16
2023-01-17T03:43:37.607Z,97625.16
2023-01-17T03:48:43.405Z,97628.52
2023-01-17T03:53:50.092Z,97614.80
2023-01-17T03:58:57.226Z,97614.80
2023-01-17T04:04:02.755Z,97601.88
2023-01-17T04:09:08.290Z,97607.70
2023-01-17T04:14:13.679Z,97607.70
2023-01-17T04:19:19.474Z,97602.94
2023-01-17T04:24:24.925Z,97601.31
2023-01-17T04:29:30.445Z,97595.77
2023-01-17T04:34:35.983Z,97597.33
2023-01-17T04:39:41.490Z,97597.33
2023-01-17T04:44:46.943Z,97593.95
2023-01-17T04:49:52.338Z,97578.81
2023-01-17T04:54:57.771Z,97577.48
2023-01-17T05:00:03.331Z,97588.28
2023-01-17T05:05:10.151Z,97588.28
2023-01-17T05:10:15.689Z,97590.28
2023-01-17T05:15:21.291Z,97593.39
2023-01-17T05:20:28.485Z,97585.55
2023-01-17T05:25:34.698Z,97585.55
2023-01-17T05:30:40.349Z,97591.96
2023-01-17T05:35:45.826Z,97587.73
2023-01-17T05:40:51.634Z,97584.50
2023-01-17T05:45:57.255Z,97586.06
2023-01-17T05:51:02.681Z,97582.34
2023-01-17T05:56:08.954Z,97582.34
2023-01-17T06:01:14.510Z,97576.08
2023-01-17T06:06:21.067Z,97584.98
2023-01-17T06:11:26.563Z,97579.64
2023-01-17T06:16:31.954Z,97577.97
2023-01-17T06:21:37.516Z,97585.52
2023-01-17T06:26:44.854Z,97589.78
2023-01-17T06:31:50.378Z,97589.78
2023-01-17T06:36:55.885Z,97599.34
2023-01-17T06:42:01.412Z,97595.69
2023-01-17T06:47:06.841Z,97593.95
2023-01-17T06:52:12.313Z,97600.31
2023-01-17T06:57:17.749Z,97600.31
2023-01-17T07:02:23.230Z,97609.97
2023-01-17T07:07:28.835Z,97617.34
2023-01-17T07:12:34.463Z,97626.73
2023-01-17T07:17:40.458Z,97631.64
2023-01-17T07:22:48.636Z,97630.06
2023-01-17T07:27:58.069Z,97637.97
2023-01-17T07:33:04.143Z,97625.86
2023-01-17T07:38:11.884Z,97626.50
2023-01-17T07:43:17.448Z,97629.44
2023-01-17T07:48:25.005Z,97626.31
2023-01-17T07:53:33.524Z,97639.67
2023-01-17T07:58:39.044Z,97634.42
2023-01-17T08:03:45.590Z,97642.39
2023-01-17T08:08:51.504Z,97645.89
2023-01-17T08:14:00.263Z,97658.78
2023-01-17T08:19:05.720Z,97664.67
2023-01-17T08:24:17.099Z,97666.29
2023-01-17T08:29:23.006Z,97674.20
2023-01-17T08:34:28.614Z,97676.55
2023-01-17T08:39:34.306Z,97677.01
2023-01-17T08:44:39.996Z,97675.46
2023-01-17T08:49:45.541Z,97690.50
2023-01-17T08:54:53.255Z,97693.06
2023-01-17T08:59:59.299Z,97693.95
2023-01-17T09:05:04.814Z,97691.66
2023-01-17T09:10:11.384Z,97700.23
2023-01-17T09:15:18.640Z,97704.08
2023-01-17T09:20:24.994Z,97713.91
2023-01-17T09:25:30.440Z,97720.78
2023-01-17T09:30:35.941Z,97719.06
2023-01-17T09:35:41.739Z,97723.52
2023-01-17T09:40:49.571Z,97731.48
2023-01-17T09:45:55.398Z,97723.47
2023-01-17T09:51:03.836Z,97734.22
2023-01-17T09:56:18.727Z,97730.78
2023-01-17T10:01:36.289Z,97730.23
2023-01-17T10:06:44.754Z,97724.45
2023-01-17T10:12:09.471Z,97735.90
2023-01-17T10:17:20.862Z,97725.44
2023-01-17T10:22:50.609Z,97734.63
2023-01-17T10:28:23.127Z,97742.28
2023-01-17T10:33:34.645Z,97756.82
2023-01-17T10:38:43.343Z,97762.36
2023-01-17T10:44:00.625Z,97766.56
2023-01-17T10:49:06.273Z,97771.74
2023-01-17T10:54:40.688Z,97772.09
2023-01-17T10:59:46.272Z,97777.48
2023-01-17T11:04:54.722Z,97779.48
2023-01-17T11:10:00.690Z,97792.22
2023-01-17T11:15:15.859Z,97799.87
2023-01-17T11:20:36.391Z,97811.01
2023-01-17T11:25:44.138Z,97819.19
2023-01-17T11:31:05.171Z,97818.00
2023-01-17T11:36:19.587Z,97825.43
2023-01-17T11:41:28.317Z,97827.55
2023-01-17T11:46:33.921Z,97822.95
2023-01-17T11:51:43.718Z,97833.08
2023-01-17T11:56:50.707Z,97849.09
2023-01-17T12:02:34.169Z,97856.00
2023-01-17T12:07:42.595Z,97854.63
2023-01-17T12:13:26.966Z,97865.73
2023-01-17T12:18:38.089Z,97872.94
2023-01-17T12:24:04.698Z,97878.90
2023-01-17T12:29:32.865Z,97881.39
2023-01-17T12:34:57.969Z,97900.28
2023-01-17T12:40:22.374Z,97901.68
2023-01-17T12:45:32.213Z,97907.83
2023-01-17T12:50:55.763Z,97913.14
2023-01-17T12:56:04.471Z,97911.06
2023-01-17T13:01:21.922Z,97938.21
2023-01-17T13:06:39.333Z,97945.81
2023-01-17T13:11:49.392Z,97942.94
2023-01-17T13:17:17.604Z,97957.55
2023-01-17T13:22:26.253Z,97963.14
2023-01-17T13:27:47.504Z,97978.52
2023-01-17T13:33:15.540Z,97982.77
2023-01-17T13:38:39.147Z,97988.90
2023-01-17T13:43:48.292Z,98008.83
2023-01-17T13:48:56.720Z,98022.97
2023-01-17T13:54:03.517Z,98033.05
2023-01-17T13:59:12.365Z,98046.56
2023-01-17T14:04:17.907Z,98039.94
2023-01-17T14:09:43.125Z,98064.20
2023-01-17T14:14:52.149Z,98059.50
2023-01-17T14:20:01.362Z,98075.30
2023-01-17T14:25:19.127Z,98076.39
2023-01-17T14:30:37.176Z,98093.95
2023-01-17T14:35:51.738Z,98106.74
2023-01-17T14:41:03.121Z,98122.12
2023-01-17T14:46:11.737Z,98118.48
2023-01-17T14:51:24.984Z,98122.91
2023-01-17T14:56:31.974Z,98130.48
2023-01-17T15:01:38.215Z,98141.30
2023-01-17T15:06:46.332Z,98161.53
2023-01-17T15:11:54.026Z,98175.43
2023-01-17T15:17:12.907Z,98183.77
2023-01-17T15:22:20.516Z,98193.73
2023-01-17T15:27:26.925Z,98204.06
2023-01-17T15:32:32.692Z,98204.06
2023-01-17T15:37:40.093Z,98223.02
2023-01-17T15:42:56.158Z,98247.34
2023-01-17T15:48:40.647Z,98247.34
2023-01-17T15:53:46.142Z,98260.21
2023-01-17T15:58:52.135Z,98253.19
2023-01-17T16:03:58.621Z,98268.64
2023-01-17T16:09:04.910Z,98268.64
2023-01-17T16:14:10.469Z,98272.91
2023-01-17T16:19:16.005Z,98282.40
2023-01-17T16:24:21.508Z,98283.61
2023-01-17T16:29:27.336Z,98291.70
2023-01-17T16:34:32.978Z,98280.36
2023-01-17T16:39:38.608Z,98290.27
2023-01-17T16:44:44.056Z,98298.72
2023-01-17T16:49:49.521Z,98296.58
2023-01-17T16:54:56.093Z,98302.91
2023-01-17T17:00:01.622Z,98309.06
2023-01-17T17:05:08.681Z,98310.74
2023-01-17T17:10:17.683Z,98313.06
2023-01-17T17:15:23.151Z,98312.57
2023-01-17T17:20:28.742Z,98311.98
2023-01-17T17:25:34.337Z,98332.94
2023-01-17T17:30:39.799Z,98332.94
2023-01-17T17:35:45.309Z,98337.38
2023-01-17T17:40:50.795Z,98342.91
2023-01-17T17:45:56.381Z,98342.78
2023-01-17T17:51:02.974Z,98352.98
2023-01-17T17:56:09.747Z,98362.73
2023-01-17T18:01:15.410Z,98361.98
2023-01-17T18:06:22.013Z,98367.46
2023-01-17T18:11:29.250Z,98377.95
2023-01-17T18:16:36.685Z,98380.78
2023-01-17T18:21:43.176Z,98394.30
2023-01-17T18:26:51.233Z,98398.95
2023-01-17T18:31:57.565Z,98401.62
2023-01-17T18:37:04.384Z,98402.08
2023-01-17T18:42:11.394Z,98401.25
2023-01-17T18:47:16.768Z,98405.27
2023-01-17T18:52:23.668Z,98409.42
2023-01-17T18:57:29.127Z,98410.86
2023-01-17T19:02:34.512Z,98424.25
2023-01-17T19:07:39.956Z,98434.81
2023-01-17T19:12:45.734Z,98443.91
2023-01-17T19:17:51.117Z,98448.91
2023-01-17T19:22:56.544Z,98454.00
2023-01-17T19:28:02.069Z,98457.77
2023-01-17T19:33:08.047Z,98452.06
2023-01-17T19:38:13.579Z,98464.31
2023-01-17T19:43:20.880Z,98465.12
2023-01-17T19:48:27.766Z,98470.06
2023-01-17T19:53:33.292Z,98464.28
2023-01-17T19:58:40.062Z,98474.36
2023-01-17T20:03:46.777Z,98481.09
2023-01-17T20:08:52.682Z,98505.19
2023-01-17T20:14:00.590Z,98497.23
2023-01-17T20:19:06.284Z,98506.89
2023-01-17T20:24:13.718Z,98510.56
2023-01-17T20:29:19.671Z,98509.19
2023-01-17T20:34:25.918Z,98522.95
2023-01-17T20:39:33.407Z,98513.70
2023-01-17T20:44:38.949Z,98509.53
2023-01-17T20:49:44.553Z,98458.41
2023-01-17T20:54:51.860Z,98511.80
2023-01-17T20:59:57.336Z,98518.86
2023-01-17T21:05:03.836Z,98522.63
2023-01-17T21:10:09.940Z,98531.13
2023-01-17T21:15:17.145Z,98536.97
2023-01-17T21:20:22.628Z,98536.41
2023-01-17T21:25:28.387Z,98543.19
2023-01-17T21:30:34.579Z,98534.70
2023-01-17T21:35:40.821Z,98551.58
2023-01-17T21:40:47.069Z,98563.46
2023-01-17T21:45:53.629Z,98570.63
2023-01-17T21:51:04.668Z,98587.69
2023-01-17T21:56:30.982Z,98600.89
2023-01-17T22:01:36.566Z,98612.21
2023-01-17T22:06:42.276Z,98627.75
2023-01-17T22:11:47.717Z,98632.48
2023-01-17T22:16:53.203Z,98637.95
2023-01-17T22:21:58.714Z,98647.20
2023-01-17T22:27:04.173Z,98646.23
2023-01-17T22:32:09.646Z,98659.05
2023-01-17T22:37:15.605Z,98650.84
2023-01-17T22:42:21.250Z,98645.82
2023-01-17T22:47:26.718Z,98647.80
2023-01-17T22:52:33.068Z,98644.39
2023-01-17T22:57:38.659Z,98631.09
2023-01-17T23:02:44.523Z,98633.98
2023-01-17T23:07:52.042Z,98633.69
2023-01-17T23:12:57.964Z,98649.94
2023-01-17T23:18:21.651Z,98649.11
2023-01-17T23:23:27.044Z,98653.16
2023-01-17T23:28:32.558Z,98654.45
2023-01-17T23:33:38.016Z,98652.33
2023-01-17T23:38:44.255Z,98648.33
2023-01-17T23:43:54.932Z,98650.07
2023-01-17T23:49:00.632Z,98643.52
2023-01-17T23:54:06.147Z,98641.34
2023-01-17T23:59:11.683Z,98639.09
